sensor_id;sensor_type;location;lat;lon;timestamp;P1;durP1;ratioP1;P2;durP2;ratioP2
61962;SDS011;47927;42.646;23.096;2023-05-20T00:01:55;6.82;;;3.38;;
61962;SDS011;47927;42.646;23.096;2023-05-20T00:04:20;6.57;;;3.97;;
61962;SDS011;47927;42.646;23.096;2023-05-20T00:06:46;6.95;;;3.42;;
61962;SDS011;47927;42.646;23.096;2023-05-20T00:09:11;6.13;;;4.05;;
61962;SDS011;47927;42.646;23.096;2023-05-20T00:11:37;5.95;;;3.55;;
61962;SDS011;47927;42.646;23.096;2023-05-20T00:14:02;8.63;;;3.72;;
61962;SDS011;47927;42.646;23.096;2023-05-20T00:16:28;6.88;;;3.80;;
61962;SDS011;47927;42.646;23.096;2023-05-20T00:18:53;8.50;;;3.65;;
61962;SDS011;47927;42.646;23.096;2023-05-20T00:21:39;7.95;;;4.20;;
61962;SDS011;47927;42.646;23.096;2023-05-20T00:24:04;7.78;;;4.15;;
61962;SDS011;47927;42.646;23.096;2023-05-20T00:26:30;6.22;;;3.97;;
61962;SDS011;47927;42.646;23.096;2023-05-20T00:28:57;9.38;;;3.88;;
61962;SDS011;47927;42.646;23.096;2023-05-20T00:31:22;6.50;;;3.95;;
61962;SDS011;47927;42.646;23.096;2023-05-20T00:33:48;7.47;;;4.07;;
61962;SDS011;47927;42.646;23.096;2023-05-20T00:36:14;9.57;;;4.20;;
61962;SDS011;47927;42.646;23.096;2023-05-20T00:38:39;6.50;;;3.70;;
61962;SDS011;47927;42.646;23.096;2023-05-20T00:41:05;7.72;;;3.90;;
61962;SDS011;47927;42.646;23.096;2023-05-20T00:43:30;8.35;;;4.15;;
61962;SDS011;47927;42.646;23.096;2023-05-20T00:45:56;6.90;;;4.28;;
61962;SDS011;47927;42.646;23.096;2023-05-20T00:48:21;7.43;;;3.88;;
61962;SDS011;47927;42.646;23.096;2023-05-20T00:50:48;7.53;;;4.00;;
61962;SDS011;47927;42.646;23.096;2023-05-20T00:53:15;7.60;;;4.22;;
61962;SDS011;47927;42.646;23.096;2023-05-20T00:55:42;8.95;;;4.75;;
61962;SDS011;47927;42.646;23.096;2023-05-20T00:58:08;7.38;;;4.15;;
61962;SDS011;47927;42.646;23.096;2023-05-20T01:00:34;7.07;;;3.90;;
61962;SDS011;47927;42.646;23.096;2023-05-20T01:03:00;7.10;;;3.75;;
61962;SDS011;47927;42.646;23.096;2023-05-20T01:05:26;7.28;;;3.80;;
61962;SDS011;47927;42.646;23.096;2023-05-20T01:07:51;7.45;;;3.83;;
61962;SDS011;47927;42.646;23.096;2023-05-20T01:10:17;8.15;;;3.80;;
61962;SDS011;47927;42.646;23.096;2023-05-20T01:12:47;8.75;;;3.80;;
61962;SDS011;47927;42.646;23.096;2023-05-20T01:15:35;8.98;;;4.25;;
61962;SDS011;47927;42.646;23.096;2023-05-20T01:18:04;6.68;;;3.65;;
61962;SDS011;47927;42.646;23.096;2023-05-20T01:20:35;6.63;;;3.90;;
61962;SDS011;47927;42.646;23.096;2023-05-20T01:23:02;7.13;;;3.85;;
61962;SDS011;47927;42.646;23.096;2023-05-20T01:25:28;10.15;;;4.20;;
61962;SDS011;47927;42.646;23.096;2023-05-20T01:27:54;6.82;;;3.78;;
61962;SDS011;47927;42.646;23.096;2023-05-20T01:30:22;8.95;;;3.83;;
61962;SDS011;47927;42.646;23.096;2023-05-20T01:32:52;6.28;;;4.00;;
61962;SDS011;47927;42.646;23.096;2023-05-20T01:35:22;6.85;;;3.80;;
61962;SDS011;47927;42.646;23.096;2023-05-20T01:37:49;5.65;;;4.00;;
61962;SDS011;47927;42.646;23.096;2023-05-20T01:40:17;13.68;;;5.53;;
61962;SDS011;47927;42.646;23.096;2023-05-20T01:42:43;8.15;;;4.75;;
61962;SDS011;47927;42.646;23.096;2023-05-20T01:45:10;12.82;;;4.78;;
61962;SDS011;47927;42.646;23.096;2023-05-20T01:47:36;10.07;;;4.70;;
61962;SDS011;47927;42.646;23.096;2023-05-20T01:50:02;13.63;;;4.18;;
61962;SDS011;47927;42.646;23.096;2023-05-20T01:52:28;8.00;;;4.28;;
61962;SDS011;47927;42.646;23.096;2023-05-20T01:54:53;7.80;;;4.03;;
61962;SDS011;47927;42.646;23.096;2023-05-20T01:57:20;8.95;;;3.85;;
61962;SDS011;47927;42.646;23.096;2023-05-20T01:59:48;8.52;;;3.75;;
61962;SDS011;47927;42.646;23.096;2023-05-20T02:02:14;7.13;;;3.72;;
61962;SDS011;47927;42.646;23.096;2023-05-20T02:04:44;6.55;;;3.83;;
61962;SDS011;47927;42.646;23.096;2023-05-20T02:07:13;7.60;;;5.28;;
61962;SDS011;47927;42.646;23.096;2023-05-20T02:09:40;6.32;;;4.10;;
61962;SDS011;47927;42.646;23.096;2023-05-20T02:12:06;7.60;;;3.67;;
61962;SDS011;47927;42.646;23.096;2023-05-20T02:14:33;6.15;;;3.83;;
61962;SDS011;47927;42.646;23.096;2023-05-20T02:16:58;9.07;;;3.42;;
61962;SDS011;47927;42.646;23.096;2023-05-20T02:19:25;7.70;;;4.13;;
61962;SDS011;47927;42.646;23.096;2023-05-20T02:21:51;6.05;;;3.35;;
61962;SDS011;47927;42.646;23.096;2023-05-20T02:24:17;8.23;;;4.00;;
61962;SDS011;47927;42.646;23.096;2023-05-20T02:26:42;6.38;;;3.72;;
61962;SDS011;47927;42.646;23.096;2023-05-20T02:29:10;8.20;;;3.17;;
61962;SDS011;47927;42.646;23.096;2023-05-20T02:31:36;7.80;;;3.70;;
61962;SDS011;47927;42.646;23.096;2023-05-20T02:34:01;7.00;;;3.70;;
61962;SDS011;47927;42.646;23.096;2023-05-20T02:36:28;8.55;;;4.10;;
61962;SDS011;47927;42.646;23.096;2023-05-20T02:38:53;6.82;;;3.85;;
61962;SDS011;47927;42.646;23.096;2023-05-20T02:41:21;5.53;;;3.40;;
61962;SDS011;47927;42.646;23.096;2023-05-20T02:43:47;11.68;;;3.75;;
61962;SDS011;47927;42.646;23.096;2023-05-20T02:46:12;6.00;;;3.33;;
61962;SDS011;47927;42.646;23.096;2023-05-20T02:48:39;8.48;;;4.25;;
61962;SDS011;47927;42.646;23.096;2023-05-20T02:51:05;8.13;;;3.55;;
61962;SDS011;47927;42.646;23.096;2023-05-20T02:53:31;6.85;;;3.78;;
61962;SDS011;47927;42.646;23.096;2023-05-20T02:55:56;6.85;;;3.63;;
61962;SDS011;47927;42.646;23.096;2023-05-20T02:58:22;10.95;;;4.10;;
61962;SDS011;47927;42.646;23.096;2023-05-20T03:00:51;6.57;;;3.33;;
61962;SDS011;47927;42.646;23.096;2023-05-20T03:03:18;5.90;;;3.13;;
61962;SDS011;47927;42.646;23.096;2023-05-20T03:05:44;8.48;;;3.90;;
61962;SDS011;47927;42.646;23.096;2023-05-20T03:08:10;7.80;;;3.70;;
61962;SDS011;47927;42.646;23.096;2023-05-20T03:10:36;6.97;;;3.35;;
61962;SDS011;47927;42.646;23.096;2023-05-20T03:13:04;6.50;;;3.80;;
61962;SDS011;47927;42.646;23.096;2023-05-20T03:15:36;5.88;;;3.53;;
61962;SDS011;47927;42.646;23.096;2023-05-20T03:18:02;6.63;;;3.38;;
61962;SDS011;47927;42.646;23.096;2023-05-20T03:20:29;7.63;;;3.80;;
61962;SDS011;47927;42.646;23.096;2023-05-20T03:22:55;6.53;;;3.92;;
61962;SDS011;47927;42.646;23.096;2023-05-20T03:25:21;8.85;;;3.97;;
61962;SDS011;47927;42.646;23.096;2023-05-20T03:27:47;7.80;;;3.70;;
61962;SDS011;47927;42.646;23.096;2023-05-20T03:30:14;5.80;;;3.70;;
61962;SDS011;47927;42.646;23.096;2023-05-20T03:32:41;5.95;;;3.40;;
61962;SDS011;47927;42.646;23.096;2023-05-20T03:35:06;8.82;;;4.13;;
61962;SDS011;47927;42.646;23.096;2023-05-20T03:37:34;6.43;;;3.72;;
61962;SDS011;47927;42.646;23.096;2023-05-20T03:40:01;10.77;;;3.70;;
61962;SDS011;47927;42.646;23.096;2023-05-20T03:42:30;9.20;;;3.92;;
61962;SDS011;47927;42.646;23.096;2023-05-20T03:44:59;5.90;;;3.50;;
61962;SDS011;47927;42.646;23.096;2023-05-20T03:47:27;11.98;;;4.88;;
61962;SDS011;47927;42.646;23.096;2023-05-20T03:50:11;8.40;;;4.25;;
61962;SDS011;47927;42.646;23.096;2023-05-20T03:52:37;9.10;;;4.55;;
61962;SDS011;47927;42.646;23.096;2023-05-20T03:55:05;9.73;;;5.10;;
61962;SDS011;47927;42.646;23.096;2023-05-20T03:57:32;12.65;;;5.50;;
61962;SDS011;47927;42.646;23.096;2023-05-20T03:59:58;12.38;;;5.30;;
61962;SDS011;47927;42.646;23.096;2023-05-20T04:02:24;13.35;;;5.13;;
61962;SDS011;47927;42.646;23.096;2023-05-20T04:04:49;7.78;;;4.70;;
61962;SDS011;47927;42.646;23.096;2023-05-20T04:07:22;16.40;;;4.70;;
61962;SDS011;47927;42.646;23.096;2023-05-20T04:09:48;16.50;;;5.13;;
61962;SDS011;47927;42.646;23.096;2023-05-20T04:12:13;13.00;;;5.00;;
61962;SDS011;47927;42.646;23.096;2023-05-20T04:14:39;9.88;;;5.32;;
61962;SDS011;47927;42.646;23.096;2023-05-20T04:17:07;8.90;;;4.68;;
61962;SDS011;47927;42.646;23.096;2023-05-20T04:19:32;10.98;;;5.25;;
61962;SDS011;47927;42.646;23.096;2023-05-20T04:21:59;7.32;;;4.28;;
61962;SDS011;47927;42.646;23.096;2023-05-20T04:24:25;10.57;;;4.63;;
61962;SDS011;47927;42.646;23.096;2023-05-20T04:26:52;12.75;;;4.70;;
61962;SDS011;47927;42.646;23.096;2023-05-20T04:29:18;11.50;;;5.35;;
61962;SDS011;47927;42.646;23.096;2023-05-20T04:31:47;10.85;;;5.07;;
61962;SDS011;47927;42.646;23.096;2023-05-20T04:34:13;8.97;;;5.17;;
61962;SDS011;47927;42.646;23.096;2023-05-20T04:36:40;13.63;;;5.43;;
61962;SDS011;47927;42.646;23.096;2023-05-20T04:39:06;10.18;;;5.65;;
61962;SDS011;47927;42.646;23.096;2023-05-20T04:41:32;13.30;;;5.43;;
61962;SDS011;47927;42.646;23.096;2023-05-20T04:43:57;8.57;;;5.20;;
61962;SDS011;47927;42.646;23.096;2023-05-20T04:46:25;11.98;;;5.50;;
61962;SDS011;47927;42.646;23.096;2023-05-20T04:48:51;9.23;;;5.07;;
61962;SDS011;47927;42.646;23.096;2023-05-20T04:51:16;12.20;;;5.07;;
61962;SDS011;47927;42.646;23.096;2023-05-20T04:53:42;7.57;;;4.57;;
61962;SDS011;47927;42.646;23.096;2023-05-20T04:56:09;4.90;;;3.42;;
61962;SDS011;47927;42.646;23.096;2023-05-20T04:58:35;8.95;;;4.60;;
61962;SDS011;47927;42.646;23.096;2023-05-20T05:01:01;8.27;;;4.38;;
61962;SDS011;47927;42.646;23.096;2023-05-20T05:03:27;8.27;;;4.07;;
61962;SDS011;47927;42.646;23.096;2023-05-20T05:05:56;6.45;;;3.88;;
61962;SDS011;47927;42.646;23.096;2023-05-20T05:10:50;8.23;;;4.15;;
61962;SDS011;47927;42.646;23.096;2023-05-20T05:13:15;12.45;;;4.75;;
61962;SDS011;47927;42.646;23.096;2023-05-20T05:15:41;6.18;;;3.38;;
61962;SDS011;47927;42.646;23.096;2023-05-20T05:18:07;7.53;;;3.92;;
61962;SDS011;47927;42.646;23.096;2023-05-20T05:20:34;5.22;;;3.95;;
61962;SDS011;47927;42.646;23.096;2023-05-20T05:22:59;6.63;;;4.35;;
61962;SDS011;47927;42.646;23.096;2023-05-20T05:25:25;7.15;;;4.38;;
61962;SDS011;47927;42.646;23.096;2023-05-20T05:27:51;5.68;;;3.92;;
61962;SDS011;47927;42.646;23.096;2023-05-20T05:30:19;5.88;;;4.05;;
61962;SDS011;47927;42.646;23.096;2023-05-20T05:32:46;5.80;;;3.97;;
61962;SDS011;47927;42.646;23.096;2023-05-20T05:35:12;7.47;;;4.90;;
61962;SDS011;47927;42.646;23.096;2023-05-20T05:37:38;5.93;;;4.30;;
61962;SDS011;47927;42.646;23.096;2023-05-20T05:40:04;5.40;;;4.03;;
61962;SDS011;47927;42.646;23.096;2023-05-20T05:42:49;5.65;;;4.10;;
61962;SDS011;47927;42.646;23.096;2023-05-20T05:45:15;6.55;;;4.07;;
61962;SDS011;47927;42.646;23.096;2023-05-20T05:47:41;7.32;;;4.50;;
61962;SDS011;47927;42.646;23.096;2023-05-20T05:50:07;7.32;;;3.95;;
61962;SDS011;47927;42.646;23.096;2023-05-20T05:52:34;7.22;;;4.10;;
61962;SDS011;47927;42.646;23.096;2023-05-20T05:55:01;6.63;;;4.22;;
61962;SDS011;47927;42.646;23.096;2023-05-20T05:57:28;6.45;;;4.10;;
61962;SDS011;47927;42.646;23.096;2023-05-20T06:00:13;6.28;;;3.90;;
61962;SDS011;47927;42.646;23.096;2023-05-20T06:02:45;5.18;;;4.10;;
61962;SDS011;47927;42.646;23.096;2023-05-20T06:05:17;5.65;;;4.10;;
61962;SDS011;47927;42.646;23.096;2023-05-20T06:07:44;9.73;;;4.10;;
61962;SDS011;47927;42.646;23.096;2023-05-20T06:10:10;8.30;;;4.38;;
61962;SDS011;47927;42.646;23.096;2023-05-20T06:12:36;6.43;;;4.40;;
61962;SDS011;47927;42.646;23.096;2023-05-20T06:15:01;9.80;;;4.82;;
61962;SDS011;47927;42.646;23.096;2023-05-20T06:17:27;7.63;;;4.43;;
61962;SDS011;47927;42.646;23.096;2023-05-20T06:19:53;6.20;;;4.30;;
61962;SDS011;47927;42.646;23.096;2023-05-20T06:22:18;5.32;;;4.60;;
61962;SDS011;47927;42.646;23.096;2023-05-20T06:24:44;7.55;;;4.45;;
61962;SDS011;47927;42.646;23.096;2023-05-20T06:27:11;8.30;;;4.68;;
61962;SDS011;47927;42.646;23.096;2023-05-20T06:29:37;7.22;;;4.60;;
61962;SDS011;47927;42.646;23.096;2023-05-20T06:32:21;8.38;;;4.88;;
61962;SDS011;47927;42.646;23.096;2023-05-20T06:34:47;6.78;;;4.85;;
61962;SDS011;47927;42.646;23.096;2023-05-20T06:37:12;6.35;;;4.30;;
61962;SDS011;47927;42.646;23.096;2023-05-20T06:39:39;6.70;;;4.60;;
61962;SDS011;47927;42.646;23.096;2023-05-20T06:42:05;5.75;;;4.60;;
61962;SDS011;47927;42.646;23.096;2023-05-20T06:44:34;5.80;;;4.70;;
61962;SDS011;47927;42.646;23.096;2023-05-20T06:47:15;11.10;;;4.63;;
61962;SDS011;47927;42.646;23.096;2023-05-20T06:49:42;6.35;;;4.30;;
61962;SDS011;47927;42.646;23.096;2023-05-20T06:52:08;7.45;;;5.03;;
61962;SDS011;47927;42.646;23.096;2023-05-20T06:54:34;6.57;;;4.78;;
61962;SDS011;47927;42.646;23.096;2023-05-20T06:57:05;7.95;;;4.63;;
61962;SDS011;47927;42.646;23.096;2023-05-20T06:59:34;10.82;;;4.80;;
61962;SDS011;47927;42.646;23.096;2023-05-20T07:02:02;7.07;;;4.20;;
61962;SDS011;47927;42.646;23.096;2023-05-20T07:04:28;6.95;;;4.50;;
61962;SDS011;47927;42.646;23.096;2023-05-20T07:06:53;6.43;;;4.57;;
61962;SDS011;47927;42.646;23.096;2023-05-20T07:09:20;7.35;;;4.30;;
61962;SDS011;47927;42.646;23.096;2023-05-20T07:11:45;7.57;;;4.72;;
61962;SDS011;47927;42.646;23.096;2023-05-20T07:14:11;7.82;;;4.38;;
61962;SDS011;47927;42.646;23.096;2023-05-20T07:16:36;6.35;;;4.55;;
61962;SDS011;47927;42.646;23.096;2023-05-20T07:19:02;7.68;;;4.78;;
61962;SDS011;47927;42.646;23.096;2023-05-20T07:21:29;8.23;;;4.60;;
61962;SDS011;47927;42.646;23.096;2023-05-20T07:24:02;6.75;;;4.28;;
61962;SDS011;47927;42.646;23.096;2023-05-20T07:26:29;9.82;;;4.53;;
61962;SDS011;47927;42.646;23.096;2023-05-20T07:28:57;7.13;;;4.47;;
61962;SDS011;47927;42.646;23.096;2023-05-20T07:31:23;10.38;;;4.60;;
61962;SDS011;47927;42.646;23.096;2023-05-20T07:33:51;6.22;;;4.45;;
61962;SDS011;47927;42.646;23.096;2023-05-20T07:36:17;6.85;;;4.78;;
61962;SDS011;47927;42.646;23.096;2023-05-20T07:38:46;8.02;;;4.50;;
61962;SDS011;47927;42.646;23.096;2023-05-20T07:41:11;5.57;;;4.50;;
61962;SDS011;47927;42.646;23.096;2023-05-20T07:43:38;7.78;;;5.13;;
61962;SDS011;47927;42.646;23.096;2023-05-20T07:46:03;7.30;;;4.47;;
61962;SDS011;47927;42.646;23.096;2023-05-20T07:48:29;9.80;;;4.85;;
61962;SDS011;47927;42.646;23.096;2023-05-20T07:50:54;6.00;;;4.60;;
61962;SDS011;47927;42.646;23.096;2023-05-20T07:53:26;7.60;;;4.63;;
61962;SDS011;47927;42.646;23.096;2023-05-20T07:55:53;6.65;;;4.93;;
61962;SDS011;47927;42.646;23.096;2023-05-20T07:58:19;8.43;;;4.88;;
61962;SDS011;47927;42.646;23.096;2023-05-20T08:00:44;7.82;;;4.47;;
61962;SDS011;47927;42.646;23.096;2023-05-20T08:03:10;7.13;;;4.25;;
61962;SDS011;47927;42.646;23.096;2023-05-20T08:05:55;7.53;;;4.43;;
61962;SDS011;47927;42.646;23.096;2023-05-20T08:08:20;6.75;;;4.50;;
61962;SDS011;47927;42.646;23.096;2023-05-20T08:10:53;6.40;;;4.45;;
61962;SDS011;47927;42.646;23.096;2023-05-20T08:13:22;6.63;;;4.85;;
61962;SDS011;47927;42.646;23.096;2023-05-20T08:15:48;6.65;;;4.45;;
61962;SDS011;47927;42.646;23.096;2023-05-20T08:18:14;6.88;;;4.55;;
61962;SDS011;47927;42.646;23.096;2023-05-20T08:20:40;6.00;;;4.38;;
61962;SDS011;47927;42.646;23.096;2023-05-20T08:23:07;5.72;;;4.35;;
61962;SDS011;47927;42.646;23.096;2023-05-20T08:25:32;6.07;;;4.80;;
61962;SDS011;47927;42.646;23.096;2023-05-20T08:28:00;8.40;;;4.90;;
61962;SDS011;47927;42.646;23.096;2023-05-20T08:30:28;6.57;;;4.53;;
61962;SDS011;47927;42.646;23.096;2023-05-20T08:32:54;7.47;;;4.60;;
61962;SDS011;47927;42.646;23.096;2023-05-20T08:35:21;11.10;;;4.93;;
61962;SDS011;47927;42.646;23.096;2023-05-20T08:37:47;6.95;;;4.72;;
61962;SDS011;47927;42.646;23.096;2023-05-20T08:40:13;7.07;;;4.75;;
61962;SDS011;47927;42.646;23.096;2023-05-20T08:42:39;7.20;;;5.15;;
61962;SDS011;47927;42.646;23.096;2023-05-20T08:45:07;6.95;;;4.95;;
61962;SDS011;47927;42.646;23.096;2023-05-20T08:47:36;7.63;;;5.00;;
61962;SDS011;47927;42.646;23.096;2023-05-20T08:50:05;11.05;;;5.25;;
61962;SDS011;47927;42.646;23.096;2023-05-20T08:52:30;7.82;;;5.28;;
61962;SDS011;47927;42.646;23.096;2023-05-20T08:54:59;7.90;;;5.30;;
61962;SDS011;47927;42.646;23.096;2023-05-20T08:57:26;7.00;;;4.93;;
61962;SDS011;47927;42.646;23.096;2023-05-20T08:59:54;5.63;;;4.40;;
61962;SDS011;47927;42.646;23.096;2023-05-20T09:02:21;11.82;;;5.30;;
61962;SDS011;47927;42.646;23.096;2023-05-20T09:04:47;8.20;;;5.40;;
61962;SDS011;47927;42.646;23.096;2023-05-20T09:07:12;7.50;;;5.40;;
61962;SDS011;47927;42.646;23.096;2023-05-20T09:09:38;8.50;;;5.63;;
61962;SDS011;47927;42.646;23.096;2023-05-20T09:12:04;8.90;;;5.40;;
61962;SDS011;47927;42.646;23.096;2023-05-20T09:14:30;7.47;;;5.40;;
61962;SDS011;47927;42.646;23.096;2023-05-20T09:16:56;7.35;;;4.88;;
61962;SDS011;47927;42.646;23.096;2023-05-20T09:19:21;9.48;;;5.70;;
61962;SDS011;47927;42.646;23.096;2023-05-20T09:21:48;12.40;;;5.32;;
61962;SDS011;47927;42.646;23.096;2023-05-20T09:24:19;7.18;;;4.97;;
61962;SDS011;47927;42.646;23.096;2023-05-20T09:26:47;7.15;;;5.72;;
61962;SDS011;47927;42.646;23.096;2023-05-20T09:29:12;6.63;;;5.03;;
61962;SDS011;47927;42.646;23.096;2023-05-20T09:31:38;8.85;;;5.47;;
61962;SDS011;47927;42.646;23.096;2023-05-20T09:34:04;6.93;;;4.88;;
61962;SDS011;47927;42.646;23.096;2023-05-20T09:36:30;7.00;;;4.93;;
61962;SDS011;47927;42.646;23.096;2023-05-20T09:38:59;9.95;;;5.40;;
61962;SDS011;47927;42.646;23.096;2023-05-20T09:41:35;9.85;;;5.32;;
61962;SDS011;47927;42.646;23.096;2023-05-20T09:44:04;8.27;;;6.53;;
61962;SDS011;47927;42.646;23.096;2023-05-20T09:46:31;6.60;;;4.80;;
61962;SDS011;47927;42.646;23.096;2023-05-20T09:48:58;8.77;;;5.50;;
61962;SDS011;47927;42.646;23.096;2023-05-20T09:51:24;8.40;;;4.88;;
61962;SDS011;47927;42.646;23.096;2023-05-20T09:53:50;8.23;;;4.95;;
61962;SDS011;47927;42.646;23.096;2023-05-20T09:56:17;9.30;;;5.35;;
61962;SDS011;47927;42.646;23.096;2023-05-20T09:58:45;7.05;;;4.90;;
61962;SDS011;47927;42.646;23.096;2023-05-20T10:01:12;8.52;;;4.78;;
61962;SDS011;47927;42.646;23.096;2023-05-20T10:03:38;9.13;;;5.00;;
61962;SDS011;47927;42.646;23.096;2023-05-20T10:06:10;8.15;;;5.20;;
61962;SDS011;47927;42.646;23.096;2023-05-20T10:14:09;12.40;;;5.85;;
61962;SDS011;47927;42.646;23.096;2023-05-20T10:16:47;6.97;;;4.50;;
61962;SDS011;47927;42.646;23.096;2023-05-20T10:19:33;8.77;;;5.20;;
61962;SDS011;47927;42.646;23.096;2023-05-20T10:22:03;10.82;;;4.47;;
61962;SDS011;47927;42.646;23.096;2023-05-20T10:24:32;5.80;;;4.55;;
61962;SDS011;47927;42.646;23.096;2023-05-20T10:27:00;7.57;;;4.18;;
61962;SDS011;47927;42.646;23.096;2023-05-20T10:29:28;7.93;;;4.75;;
61962;SDS011;47927;42.646;23.096;2023-05-20T10:31:54;8.43;;;4.22;;
61962;SDS011;47927;42.646;23.096;2023-05-20T10:34:20;5.13;;;3.03;;
61962;SDS011;47927;42.646;23.096;2023-05-20T10:39:24;8.30;;;4.10;;
61962;SDS011;47927;42.646;23.096;2023-05-20T10:41:51;8.90;;;3.90;;
61962;SDS011;47927;42.646;23.096;2023-05-20T10:44:17;7.32;;;3.92;;
61962;SDS011;47927;42.646;23.096;2023-05-20T10:46:42;7.90;;;4.93;;
61962;SDS011;47927;42.646;23.096;2023-05-20T10:49:18;8.45;;;4.20;;
61962;SDS011;47927;42.646;23.096;2023-05-20T10:51:45;7.53;;;3.83;;
61962;SDS011;47927;42.646;23.096;2023-05-20T10:54:11;8.13;;;4.00;;
61962;SDS011;47927;42.646;23.096;2023-05-20T10:56:38;5.80;;;3.65;;
61962;SDS011;47927;42.646;23.096;2023-05-20T10:59:05;6.00;;;3.13;;
61962;SDS011;47927;42.646;23.096;2023-05-20T11:01:31;5.95;;;3.55;;
61962;SDS011;47927;42.646;23.096;2023-05-20T11:03:57;7.15;;;3.63;;
61962;SDS011;47927;42.646;23.096;2023-05-20T11:06:25;6.80;;;3.20;;
61962;SDS011;47927;42.646;23.096;2023-05-20T11:08:52;7.45;;;3.63;;
61962;SDS011;47927;42.646;23.096;2023-05-20T11:11:18;6.63;;;3.63;;
61962;SDS011;47927;42.646;23.096;2023-05-20T11:13:49;6.43;;;3.20;;
61962;SDS011;47927;42.646;23.096;2023-05-20T11:16:15;5.10;;;3.13;;
61962;SDS011;47927;42.646;23.096;2023-05-20T11:18:41;5.97;;;4.18;;
61962;SDS011;47927;42.646;23.096;2023-05-20T11:21:06;5.75;;;3.10;;
61962;SDS011;47927;42.646;23.096;2023-05-20T11:23:32;10.02;;;3.38;;
61962;SDS011;47927;42.646;23.096;2023-05-20T11:25:57;5.10;;;2.80;;
61962;SDS011;47927;42.646;23.096;2023-05-20T11:28:23;8.63;;;3.53;;
61962;SDS011;47927;42.646;23.096;2023-05-20T11:30:50;6.07;;;3.60;;
61962;SDS011;47927;42.646;23.096;2023-05-20T11:33:16;8.00;;;3.25;;
61962;SDS011;47927;42.646;23.096;2023-05-20T11:35:43;7.80;;;3.95;;
61962;SDS011;47927;42.646;23.096;2023-05-20T11:38:10;5.75;;;3.90;;
61962;SDS011;47927;42.646;23.096;2023-05-20T11:40:54;6.75;;;3.80;;
61962;SDS011;47927;42.646;23.096;2023-05-20T11:43:20;7.53;;;3.55;;
61962;SDS011;47927;42.646;23.096;2023-05-20T11:45:51;9.05;;;3.95;;
61962;SDS011;47927;42.646;23.096;2023-05-20T11:48:23;7.18;;;4.22;;
61962;SDS011;47927;42.646;23.096;2023-05-20T11:50:49;8.65;;;4.28;;
61962;SDS011;47927;42.646;23.096;2023-05-20T11:53:18;6.75;;;3.97;;
61962;SDS011;47927;42.646;23.096;2023-05-20T11:55:49;6.35;;;3.55;;
61962;SDS011;47927;42.646;23.096;2023-05-20T11:58:17;7.75;;;4.50;;
61962;SDS011;47927;42.646;23.096;2023-05-20T12:00:44;8.73;;;4.10;;
61962;SDS011;47927;42.646;23.096;2023-05-20T12:03:10;5.47;;;3.30;;
61962;SDS011;47927;42.646;23.096;2023-05-20T12:05:36;5.82;;;3.53;;
61962;SDS011;47927;42.646;23.096;2023-05-20T12:08:21;5.82;;;3.38;;
61962;SDS011;47927;42.646;23.096;2023-05-20T12:10:46;6.90;;;3.80;;
61962;SDS011;47927;42.646;23.096;2023-05-20T12:13:12;4.95;;;3.38;;
61962;SDS011;47927;42.646;23.096;2023-05-20T12:15:56;7.47;;;3.92;;
61962;SDS011;47927;42.646;23.096;2023-05-20T12:18:22;6.45;;;3.80;;
61962;SDS011;47927;42.646;23.096;2023-05-20T12:20:47;5.03;;;3.45;;
61962;SDS011;47927;42.646;23.096;2023-05-20T12:23:13;8.18;;;3.63;;
61962;SDS011;47927;42.646;23.096;2023-05-20T12:25:38;5.38;;;3.38;;
61962;SDS011;47927;42.646;23.096;2023-05-20T12:28:04;6.28;;;3.90;;
61962;SDS011;47927;42.646;23.096;2023-05-20T12:30:29;5.35;;;3.35;;
61962;SDS011;47927;42.646;23.096;2023-05-20T12:32:55;7.97;;;4.00;;
61962;SDS011;47927;42.646;23.096;2023-05-20T12:35:36;7.32;;;4.18;;
61962;SDS011;47927;42.646;23.096;2023-05-20T12:38:24;5.85;;;3.75;;
61962;SDS011;47927;42.646;23.096;2023-05-20T12:40:50;5.80;;;3.40;;
61962;SDS011;47927;42.646;23.096;2023-05-20T12:43:15;6.55;;;4.10;;
61962;SDS011;47927;42.646;23.096;2023-05-20T12:45:41;7.55;;;3.70;;
61962;SDS011;47927;42.646;23.096;2023-05-20T12:48:07;6.97;;;4.07;;
61962;SDS011;47927;42.646;23.096;2023-05-20T12:50:32;8.98;;;4.07;;
61962;SDS011;47927;42.646;23.096;2023-05-20T12:52:58;6.70;;;3.72;;
61962;SDS011;47927;42.646;23.096;2023-05-20T12:55:23;7.68;;;2.85;;
61962;SDS011;47927;42.646;23.096;2023-05-20T12:57:49;6.70;;;3.13;;
61962;SDS011;47927;42.646;23.096;2023-05-20T13:00:15;7.70;;;3.28;;
61962;SDS011;47927;42.646;23.096;2023-05-20T13:02:41;7.63;;;2.63;;
61962;SDS011;47927;42.646;23.096;2023-05-20T13:05:07;7.63;;;3.42;;
61962;SDS011;47927;42.646;23.096;2023-05-20T13:07:33;6.30;;;3.40;;
61962;SDS011;47927;42.646;23.096;2023-05-20T13:09:59;4.85;;;2.38;;
61962;SDS011;47927;42.646;23.096;2023-05-20T13:12:25;5.30;;;2.53;;
61962;SDS011;47927;42.646;23.096;2023-05-20T13:14:56;5.57;;;2.45;;
61962;SDS011;47927;42.646;23.096;2023-05-20T13:17:22;8.48;;;2.80;;
61962;SDS011;47927;42.646;23.096;2023-05-20T13:19:47;8.88;;;3.03;;
61962;SDS011;47927;42.646;23.096;2023-05-20T13:22:13;3.97;;;2.17;;
61962;SDS011;47927;42.646;23.096;2023-05-20T13:24:38;4.82;;;2.60;;
61962;SDS011;47927;42.646;23.096;2023-05-20T13:27:22;3.58;;;2.03;;
61962;SDS011;47927;42.646;23.096;2023-05-20T13:29:48;4.28;;;2.33;;
61962;SDS011;47927;42.646;23.096;2023-05-20T13:32:13;5.35;;;2.78;;
61962;SDS011;47927;42.646;23.096;2023-05-20T13:34:39;7.65;;;2.60;;
61962;SDS011;47927;42.646;23.096;2023-05-20T13:37:05;6.45;;;2.40;;
61962;SDS011;47927;42.646;23.096;2023-05-20T13:39:31;6.07;;;2.17;;
61962;SDS011;47927;42.646;23.096;2023-05-20T13:41:57;3.65;;;2.47;;
61962;SDS011;47927;42.646;23.096;2023-05-20T13:44:23;5.28;;;2.67;;
61962;SDS011;47927;42.646;23.096;2023-05-20T13:46:48;4.47;;;2.30;;
61962;SDS011;47927;42.646;23.096;2023-05-20T13:49:14;6.07;;;2.50;;
61962;SDS011;47927;42.646;23.096;2023-05-20T13:51:39;10.68;;;3.30;;
61962;SDS011;47927;42.646;23.096;2023-05-20T13:54:05;10.43;;;3.90;;
61962;SDS011;47927;42.646;23.096;2023-05-20T13:56:30;4.57;;;2.90;;
61962;SDS011;47927;42.646;23.096;2023-05-20T13:58:56;4.05;;;2.65;;
61962;SDS011;47927;42.646;23.096;2023-05-20T14:01:22;4.90;;;2.47;;
61962;SDS011;47927;42.646;23.096;2023-05-20T14:03:48;4.70;;;2.67;;
61962;SDS011;47927;42.646;23.096;2023-05-20T14:06:13;5.45;;;2.78;;
61962;SDS011;47927;42.646;23.096;2023-05-20T14:08:43;5.00;;;3.05;;
61962;SDS011;47927;42.646;23.096;2023-05-20T14:11:10;4.55;;;2.60;;
61962;SDS011;47927;42.646;23.096;2023-05-20T14:13:36;3.75;;;2.40;;
61962;SDS011;47927;42.646;23.096;2023-05-20T14:16:01;8.10;;;2.97;;
61962;SDS011;47927;42.646;23.096;2023-05-20T14:18:27;4.57;;;2.75;;
61962;SDS011;47927;42.646;23.096;2023-05-20T14:20:52;5.03;;;2.67;;
61962;SDS011;47927;42.646;23.096;2023-05-20T14:23:18;4.95;;;3.05;;
61962;SDS011;47927;42.646;23.096;2023-05-20T14:25:43;6.30;;;3.42;;
61962;SDS011;47927;42.646;23.096;2023-05-20T14:28:09;9.15;;;3.13;;
61962;SDS011;47927;42.646;23.096;2023-05-20T14:30:35;5.78;;;3.47;;
61962;SDS011;47927;42.646;23.096;2023-05-20T14:33:01;4.72;;;2.70;;
61962;SDS011;47927;42.646;23.096;2023-05-20T14:35:26;5.40;;;3.05;;
61962;SDS011;47927;42.646;23.096;2023-05-20T14:37:52;5.15;;;3.25;;
61962;SDS011;47927;42.646;23.096;2023-05-20T14:40:18;6.63;;;3.58;;
61962;SDS011;47927;42.646;23.096;2023-05-20T14:42:43;6.10;;;3.10;;
61962;SDS011;47927;42.646;23.096;2023-05-20T14:45:09;5.25;;;3.08;;